Kenosha, WI (53141)

7:23 AM CST on November 23, 2014 (GMT -0600)
Forest Park | Change Station
CLOSE
Current Station
Personal Weather Station
Location: Kenosha, WI
Elevation: 650 ft
Nearby Weather Stations

Elev 650 ft 42.57 °N, 87.86 °W | Updated 3 minutes ago

Overcast
Overcast
50.7 °F
Feels Like 50.7 °F
N
0.0
Wind Variable Wind from WNW
Gusts 0.7 mph

Today
High -- | Low -- °F
--% Chance of Precip.
Yesterday
High -- | Low -- °F
Precip. -- in
6:52 AM 4:22 PM
New Moon, 1% visible
Pressure 29.73 in
Visibility 9.0 miles
Clouds Overcast 2100 ft
Dew Point 46 °F
Humidity 83%
Rainfall 0.00 in
Snow Depth Not available.
UV 0 out of 12
Pollen .10 out of 12
Air Quality Not available.
Flu Activity Not available.
METAR KENW 231253Z AUTO 20011KT 9SM OVC021 10/07 A2972 RMK AO2 SLP067 T01000072

More Conditions Fewer Conditions

Pressure 29.73 in
Visibility 9.0 miles
Clouds Overcast 2100 ft
Dew Point 46 °F
Humidity 83%
Rainfall 0.00 in
Snow Depth Not available.
UV 0 out of 12
Pollen .10 out of 12
Air Quality Not available.
Flu Activity Not available.
METAR KENW 231253Z AUTO 20011KT 9SM OVC021 10/07 A2972 RMK AO2 SLP067 T01000072

More Conditions Fewer Conditions

10-Day Weather Forecast

Almanac

Astronomy

Nov. 23, 2014 Rise Set
Actual Time
Civil Twilight
Nautical Twilight
Astronomical Twilight
Moon
Length of Visible Light
Length of Day
Tomorrow will be .
, % of the Moon is Illuminated

Today's Extremes

State Highs State Lows

Community

WunderPhotos

Upload Photos

1,773,054 photos uploaded!

WunderBlogs® & News

Nearby

Air Quality

  Air Quality AQ Index Pollutant
Not available.

Snow Depth

Station Depth Elevation

Earthquake Activity

City Distance Mag. Time & Date
Minimum magnitude displayed is 2.5.

Coastal Water Temperatures

Place Temperature

Nearby Weather Stations